createdAt,value
2018-12-09T00:00:15.556Z,9.30
2018-12-09T00:02:42.751Z,9.30
2018-12-09T00:05:10.035Z,9.30
2018-12-09T00:07:37.236Z,9.40
2018-12-09T00:10:04.770Z,9.30
2018-12-09T00:12:31.978Z,9.30
2018-12-09T00:15:05.660Z,9.30
2018-12-09T00:17:34.850Z,9.20
2018-12-09T00:20:02.076Z,9.20
2018-12-09T00:22:29.354Z,9.20
2018-12-09T00:24:56.516Z,9.10
2018-12-09T00:27:23.772Z,9.10
2018-12-09T00:29:50.956Z,9.10
2018-12-09T00:32:21.761Z,9.00
2018-12-09T00:34:48.988Z,9.00
2018-12-09T00:37:16.231Z,9.00
2018-12-09T00:39:43.412Z,8.90
2018-12-09T00:42:11.722Z,8.80
2018-12-09T00:44:38.986Z,8.80
2018-12-09T00:47:06.200Z,8.80
2018-12-09T00:49:33.365Z,8.80
2018-12-09T00:52:00.537Z,8.70
2018-12-09T00:54:27.739Z,8.70
2018-12-09T00:56:55.997Z,8.60
2018-12-09T00:59:23.189Z,8.60
2018-12-09T01:01:50.506Z,8.60
2018-12-09T01:04:17.764Z,8.50
2018-12-09T01:06:44.996Z,8.50
2018-12-09T01:09:12.319Z,8.50
2018-12-09T01:11:41.582Z,8.50
2018-12-09T01:14:08.771Z,8.50
2018-12-09T01:16:41.639Z,8.40
2018-12-09T01:19:08.840Z,8.40
2018-12-09T01:21:36.125Z,8.40
2018-12-09T01:24:03.300Z,8.30
2018-12-09T01:26:30.512Z,8.20
2018-12-09T01:28:57.707Z,8.20
2018-12-09T01:31:25.366Z,8.20
2018-12-09T01:33:52.557Z,8.20
2018-12-09T01:36:19.921Z,8.20
2018-12-09T01:38:47.119Z,8.30
2018-12-09T01:41:15.345Z,8.30
2018-12-09T01:43:42.548Z,8.30
2018-12-09T01:46:11.759Z,8.30
2018-12-09T01:48:38.956Z,8.30
2018-12-09T01:51:06.170Z,8.30
2018-12-09T01:53:39.310Z,8.30
2018-12-09T01:56:06.527Z,8.30
2018-12-09T01:58:33.732Z,8.30
2018-12-09T02:01:00.935Z,8.30
2018-12-09T02:03:28.160Z,8.20
2018-12-09T02:05:59.052Z,8.10
2018-12-09T02:08:26.264Z,8.00
2018-12-09T02:10:53.644Z,7.90
2018-12-09T02:13:20.845Z,7.90
2018-12-09T02:15:49.087Z,7.80
2018-12-09T02:18:18.341Z,7.70
2018-12-09T02:20:45.533Z,7.60
2018-12-09T02:23:13.088Z,7.50
2018-12-09T02:25:40.292Z,7.40
2018-12-09T02:28:08.512Z,7.40
2018-12-09T02:30:35.707Z,7.40
2018-12-09T02:33:02.937Z,7.40
2018-12-09T02:35:32.124Z,7.40
2018-12-09T02:37:59.352Z,7.40
2018-12-09T02:40:26.573Z,7.40
2018-12-09T02:42:53.771Z,7.40
2018-12-09T02:45:22.142Z,7.50
2018-12-09T02:47:49.451Z,7.40
2018-12-09T02:50:16.684Z,7.50
2018-12-09T02:52:43.925Z,7.50
2018-12-09T02:55:11.125Z,7.50
2018-12-09T02:57:38.362Z,7.50
2018-12-09T03:00:08.101Z,7.50
2018-12-09T03:02:35.319Z,7.50
2018-12-09T03:05:02.489Z,7.50
2018-12-09T03:07:29.657Z,7.50
2018-12-09T03:09:57.295Z,7.40
2018-12-09T03:12:24.472Z,7.40
2018-12-09T03:14:51.730Z,7.40
2018-12-09T03:17:18.900Z,7.40
2018-12-09T03:19:46.098Z,7.50
2018-12-09T03:22:13.705Z,7.60
2018-12-09T03:24:40.917Z,7.60
2018-12-09T03:27:08.127Z,7.60
2018-12-09T03:29:35.370Z,7.60
2018-12-09T03:32:02.542Z,7.70
2018-12-09T03:34:32.053Z,7.70
2018-12-09T03:36:59.293Z,7.70
2018-12-09T03:39:26.622Z,7.70
2018-12-09T03:41:53.832Z,7.70
2018-12-09T03:44:21.188Z,7.70
2018-12-09T03:46:48.948Z,7.70
2018-12-09T03:49:17.187Z,7.70
2018-12-09T03:51:44.393Z,7.70
2018-12-09T03:54:11.696Z,7.60
2018-12-09T03:56:38.939Z,7.60
2018-12-09T03:59:06.632Z,7.60
2018-12-09T04:01:33.842Z,7.60
2018-12-09T04:04:01.182Z,7.60
2018-12-09T04:06:28.370Z,7.60
2018-12-09T04:08:55.808Z,7.60
2018-12-09T04:11:23.166Z,7.70
2018-12-09T04:13:51.023Z,7.70
2018-12-09T04:16:18.496Z,7.70
2018-12-09T04:18:45.734Z,7.80
2018-12-09T04:21:20.198Z,7.80
2018-12-09T04:23:47.391Z,7.90
2018-12-09T04:26:14.708Z,7.90
2018-12-09T04:28:41.883Z,7.90
2018-12-09T04:31:09.285Z,7.90
2018-12-09T04:33:36.481Z,7.90
2018-12-09T04:36:12.312Z,7.80
2018-12-09T04:38:39.471Z,7.80
2018-12-09T04:41:06.697Z,7.80
2018-12-09T04:43:33.896Z,7.80
2018-12-09T04:46:01.225Z,7.80
2018-12-09T04:48:28.420Z,7.80
2018-12-09T04:50:55.749Z,7.70
2018-12-09T04:53:22.921Z,7.80
2018-12-09T04:55:50.239Z,7.80
2018-12-09T04:58:17.453Z,7.80
2018-12-09T05:00:54.124Z,7.90
2018-12-09T05:03:21.776Z,7.90
2018-12-09T05:05:49.074Z,8.00
2018-12-09T05:08:16.297Z,7.90
2018-12-09T05:10:43.854Z,7.90
2018-12-09T05:13:11.083Z,7.90
2018-12-09T05:15:38.401Z,7.80
2018-12-09T05:18:05.726Z,7.80
2018-12-09T05:20:32.937Z,7.80
2018-12-09T05:23:00.659Z,7.80
2018-12-09T05:25:28.201Z,7.80
2018-12-09T05:27:55.476Z,7.70
2018-12-09T05:30:22.909Z,7.70
2018-12-09T05:32:50.169Z,7.70
2018-12-09T05:35:17.879Z,7.70
2018-12-09T05:37:45.231Z,7.60
2018-12-09T05:40:12.419Z,7.70
2018-12-09T05:42:39.673Z,7.60
2018-12-09T05:45:06.904Z,7.60
2018-12-09T05:47:34.196Z,7.50
2018-12-09T05:50:01.418Z,7.50
2018-12-09T05:52:28.662Z,7.30
2018-12-09T05:54:55.889Z,7.30
2018-12-09T05:57:24.091Z,7.20
2018-12-09T05:59:51.281Z,7.10
2018-12-09T06:02:24.491Z,7.00
2018-12-09T06:04:51.705Z,6.90
2018-12-09T06:07:18.996Z,6.80
2018-12-09T06:09:46.293Z,6.70
2018-12-09T06:12:13.635Z,6.60
2018-12-09T06:14:40.842Z,6.60
2018-12-09T06:17:08.073Z,6.60
2018-12-09T06:19:35.337Z,6.50
2018-12-09T06:22:02.563Z,6.50
2018-12-09T06:24:29.836Z,6.40
2018-12-09T06:26:57.060Z,6.40
2018-12-09T06:29:24.296Z,6.40
2018-12-09T06:31:51.520Z,6.50
2018-12-09T06:34:18.832Z,6.50
2018-12-09T06:36:46.079Z,6.40
2018-12-09T06:39:13.724Z,6.50
2018-12-09T06:41:40.907Z,6.50
2018-12-09T06:44:08.287Z,6.50
2018-12-09T06:46:35.459Z,6.40
2018-12-09T06:49:02.753Z,6.50
2018-12-09T06:51:30.415Z,6.50
2018-12-09T06:53:57.655Z,6.40
2018-12-09T06:56:24.968Z,6.40
2018-12-09T06:59:00.328Z,6.40
2018-12-09T07:01:27.546Z,6.40
2018-12-09T07:03:55.283Z,6.40
2018-12-09T07:06:22.485Z,6.30
2018-12-09T07:08:49.758Z,6.30
2018-12-09T07:11:17.056Z,6.40
2018-12-09T07:13:44.229Z,6.30
2018-12-09T07:16:11.551Z,6.40
2018-12-09T07:18:38.755Z,6.40
2018-12-09T07:21:07.102Z,6.30
2018-12-09T07:23:34.349Z,6.30
2018-12-09T07:26:01.575Z,6.30
2018-12-09T07:28:28.762Z,6.30
2018-12-09T07:30:56.389Z,6.30
2018-12-09T07:33:23.564Z,6.30
2018-12-09T07:35:51.815Z,6.30
2018-12-09T07:38:18.991Z,6.30
2018-12-09T07:40:46.238Z,6.30
2018-12-09T07:43:13.429Z,6.20
2018-12-09T07:45:40.709Z,6.20
2018-12-09T07:48:07.923Z,6.20
2018-12-09T07:50:36.458Z,6.20
2018-12-09T07:53:03.777Z,6.20
2018-12-09T07:55:31.024Z,6.20
2018-12-09T07:57:58.226Z,6.20
2018-12-09T08:00:25.425Z,6.20
2018-12-09T08:02:52.855Z,6.20
2018-12-09T08:05:20.043Z,6.20
2018-12-09T08:07:47.203Z,6.20
2018-12-09T08:10:14.606Z,6.20
2018-12-09T08:12:41.791Z,6.20
2018-12-09T08:15:12.965Z,6.20
2018-12-09T08:17:40.149Z,6.20
2018-12-09T08:20:07.422Z,6.20
2018-12-09T08:22:38.393Z,6.20
2018-12-09T08:25:05.709Z,6.20
2018-12-09T08:27:33.006Z,6.20
2018-12-09T08:30:00.168Z,6.20
2018-12-09T08:32:27.415Z,6.20
2018-12-09T08:34:54.606Z,6.20
2018-12-09T08:37:21.831Z,6.20
2018-12-09T08:39:49.015Z,6.20
2018-12-09T08:42:17.384Z,6.20
2018-12-09T08:44:44.573Z,6.20
2018-12-09T08:47:11.841Z,6.20
2018-12-09T08:49:39.015Z,6.20
2018-12-09T08:52:06.267Z,6.20
2018-12-09T08:54:33.457Z,6.20
2018-12-09T08:57:02.674Z,6.20
2018-12-09T08:59:29.899Z,6.20
2018-12-09T09:01:58.146Z,6.20
2018-12-09T09:04:25.335Z,6.20
2018-12-09T09:06:52.588Z,6.20
2018-12-09T09:09:19.828Z,6.20
2018-12-09T09:11:47.134Z,6.30
2018-12-09T09:14:14.424Z,6.30
2018-12-09T09:16:41.639Z,6.30
2018-12-09T09:19:09.360Z,6.30
2018-12-09T09:21:36.624Z,6.40
2018-12-09T09:24:03.919Z,6.40
2018-12-09T09:26:31.108Z,6.40
2018-12-09T09:28:58.297Z,6.40
2018-12-09T09:31:25.902Z,6.50
2018-12-09T09:33:54.125Z,6.50
2018-12-09T09:36:21.292Z,6.50
2018-12-09T09:38:48.574Z,6.50
2018-12-09T09:41:17.120Z,6.50
2018-12-09T09:43:44.304Z,6.50
2018-12-09T09:46:19.243Z,6.50
2018-12-09T09:48:46.525Z,6.60
2018-12-09T09:51:14.364Z,6.60
2018-12-09T09:53:42.802Z,6.60
2018-12-09T09:56:13.954Z,6.60
2018-12-09T09:58:42.670Z,6.70
2018-12-09T10:01:09.882Z,6.80
2018-12-09T10:03:40.659Z,6.70
2018-12-09T10:06:09.912Z,6.70
2018-12-09T10:08:37.238Z,6.80
2018-12-09T10:11:07.566Z,6.80
2018-12-09T10:13:34.741Z,6.80
2018-12-09T10:16:02.056Z,6.90
2018-12-09T10:18:30.287Z,7.00
2018-12-09T10:20:57.498Z,7.10
2018-12-09T10:23:24.777Z,7.20
2018-12-09T10:25:51.976Z,7.20
2018-12-09T10:28:22.269Z,7.20
2018-12-09T10:30:50.463Z,7.30
2018-12-09T10:33:21.366Z,7.30
2018-12-09T10:35:48.564Z,7.30
2018-12-09T10:38:15.820Z,7.30
2018-12-09T10:40:43.091Z,7.40
2018-12-09T10:43:10.797Z,7.40
2018-12-09T10:45:39.385Z,7.60
2018-12-09T10:48:06.685Z,7.70
2018-12-09T10:50:33.923Z,7.70
2018-12-09T10:53:02.391Z,7.80
2018-12-09T10:55:29.616Z,7.80
2018-12-09T10:57:56.984Z,7.80
2018-12-09T11:00:29.973Z,7.90
2018-12-09T11:02:59.259Z,7.90
2018-12-09T11:05:26.470Z,8.00
2018-12-09T11:07:53.778Z,8.00
2018-12-09T11:10:21.069Z,8.00
2018-12-09T11:12:48.265Z,8.00
2018-12-09T11:15:15.564Z,8.00
2018-12-09T11:17:44.822Z,8.00
2018-12-09T11:20:12.775Z,8.00
2018-12-09T11:22:40.042Z,8.00
2018-12-09T11:25:07.272Z,8.00
2018-12-09T11:27:34.463Z,8.00
2018-12-09T11:30:06.048Z,8.00
2018-12-09T11:32:34.390Z,8.00
2018-12-09T11:35:01.762Z,8.00
2018-12-09T11:37:29.189Z,8.00
2018-12-09T11:39:56.687Z,8.10
2018-12-09T11:42:24.211Z,8.10
2018-12-09T11:44:52.649Z,8.10
2018-12-09T11:47:19.844Z,8.20
2018-12-09T11:49:54.124Z,8.30
2018-12-09T11:52:22.355Z,8.30
2018-12-09T11:54:49.649Z,8.30
2018-12-09T11:57:16.810Z,8.30
2018-12-09T11:59:46.151Z,8.30
2018-12-09T12:02:19.851Z,8.30
2018-12-09T12:04:42.728Z,8.30
2018-12-09T12:07:11.951Z,8.30
2018-12-09T12:09:39.311Z,8.30
2018-12-09T12:12:06.570Z,8.40
2018-12-09T12:14:33.860Z,8.30
2018-12-09T12:17:05.301Z,8.30
2018-12-09T12:19:34.499Z,8.30
2018-12-09T12:22:01.693Z,8.30
2018-12-09T12:24:28.894Z,8.30
2018-12-09T12:26:56.098Z,8.30
2018-12-09T12:29:23.319Z,8.30
2018-12-09T12:31:50.521Z,8.40
2018-12-09T12:34:18.100Z,8.30
2018-12-09T12:36:45.388Z,8.40
2018-12-09T12:39:12.582Z,8.40
2018-12-09T12:41:39.758Z,8.50
2018-12-09T12:44:07.576Z,8.40
2018-12-09T12:46:34.880Z,8.40
2018-12-09T12:49:03.245Z,8.40
2018-12-09T12:51:30.448Z,8.50
2018-12-09T12:53:58.607Z,8.50
2018-12-09T12:56:25.812Z,8.50
2018-12-09T12:58:53.067Z,8.50
2018-12-09T13:01:20.249Z,8.50
2018-12-09T13:03:47.592Z,8.50
2018-12-09T13:06:15.076Z,8.40
2018-12-09T13:08:45.949Z,8.40
2018-12-09T13:11:13.328Z,8.30
2018-12-09T13:13:40.685Z,8.40
2018-12-09T13:16:07.870Z,8.40
2018-12-09T13:18:37.543Z,8.30
2018-12-09T13:21:15.317Z,8.40
2018-12-09T13:23:42.477Z,8.40
2018-12-09T13:26:10.159Z,8.50
2018-12-09T13:28:37.338Z,8.50
2018-12-09T13:31:04.757Z,8.50
2018-12-09T13:33:31.939Z,8.40
2018-12-09T13:35:59.165Z,8.40
2018-12-09T13:38:26.342Z,8.40
2018-12-09T13:40:56.649Z,8.30
2018-12-09T13:43:23.885Z,8.30
2018-12-09T13:45:51.189Z,8.20
2018-12-09T13:48:18.391Z,8.10
2018-12-09T13:50:45.715Z,8.10
2018-12-09T13:53:12.968Z,8.00
2018-12-09T13:55:40.196Z,8.00
2018-12-09T13:58:07.404Z,8.00
2018-12-09T14:00:40.468Z,8.00
2018-12-09T14:03:07.728Z,8.00
2018-12-09T14:05:36.996Z,7.90
2018-12-09T14:08:04.205Z,7.90
2018-12-09T14:10:34.620Z,7.80
2018-12-09T14:13:01.852Z,7.80
2018-12-09T14:15:30.100Z,7.80
2018-12-09T14:17:57.331Z,7.80
2018-12-09T14:20:24.533Z,7.80
2018-12-09T14:22:51.747Z,7.80
2018-12-09T14:25:19.055Z,7.70
2018-12-09T14:27:46.378Z,7.70
2018-12-09T14:30:13.805Z,7.70
2018-12-09T14:32:43.144Z,7.60
2018-12-09T14:35:10.315Z,7.60
2018-12-09T14:37:37.703Z,7.90
2018-12-09T14:40:06.112Z,7.50
2018-12-09T14:42:33.382Z,7.50
2018-12-09T14:45:00.600Z,7.40
2018-12-09T14:47:29.952Z,7.40
2018-12-09T14:49:57.185Z,7.40
2018-12-09T14:52:24.490Z,7.50
2018-12-09T14:54:51.717Z,7.40
2018-12-09T14:57:19.795Z,7.40
2018-12-09T14:59:47.266Z,7.40
2018-12-09T15:02:19.765Z,7.40
2018-12-09T15:04:46.996Z,7.40
2018-12-09T15:07:29.592Z,7.40
2018-12-09T15:09:57.126Z,7.40
2018-12-09T15:12:24.544Z,7.40
2018-12-09T15:14:51.722Z,7.40
2018-12-09T15:17:18.961Z,7.40
2018-12-09T15:19:46.426Z,7.50
2018-12-09T15:22:17.278Z,7.40
2018-12-09T15:24:44.484Z,7.40
2018-12-09T15:27:11.792Z,7.40
2018-12-09T15:29:39.010Z,7.40
2018-12-09T15:32:06.296Z,7.40
2018-12-09T15:34:33.492Z,7.40
2018-12-09T15:37:00.811Z,7.30
2018-12-09T15:39:28.004Z,7.30
2018-12-09T15:41:55.251Z,7.30
2018-12-09T15:44:22.485Z,7.20
2018-12-09T15:46:49.753Z,7.10
2018-12-09T15:49:16.975Z,7.00
2018-12-09T15:51:44.353Z,6.90
2018-12-09T15:54:11.685Z,6.90
2018-12-09T15:56:38.985Z,6.80
2018-12-09T15:59:06.195Z,6.80
2018-12-09T16:01:33.634Z,6.70
2018-12-09T16:04:00.800Z,6.70
2018-12-09T16:06:28.096Z,6.70
2018-12-09T16:08:55.312Z,6.70
2018-12-09T16:11:30.650Z,6.80
2018-12-09T16:13:57.827Z,6.80
2018-12-09T16:16:25.111Z,6.80
2018-12-09T16:18:52.315Z,6.90
2018-12-09T16:21:19.531Z,6.80
2018-12-09T16:23:50.784Z,6.80
2018-12-09T16:26:18.001Z,6.80
2018-12-09T16:28:46.208Z,6.80
2018-12-09T16:31:17.243Z,6.80
2018-12-09T16:33:44.482Z,6.80
2018-12-09T16:36:11.747Z,6.80
2018-12-09T16:38:39.087Z,6.80
2018-12-09T16:41:18.474Z,6.80
2018-12-09T16:43:45.668Z,6.80
2018-12-09T16:46:19.567Z,6.80
2018-12-09T16:48:46.733Z,6.80
2018-12-09T16:51:13.947Z,6.80
2018-12-09T16:53:41.290Z,6.80
2018-12-09T16:56:08.560Z,6.80
2018-12-09T16:58:35.732Z,6.80
2018-12-09T17:01:02.980Z,6.80
2018-12-09T17:03:30.147Z,6.70
2018-12-09T17:06:03.416Z,6.70
2018-12-09T17:08:30.608Z,6.80
2018-12-09T17:10:57.846Z,6.70
2018-12-09T17:13:25.049Z,6.70
2018-12-09T17:15:54.116Z,6.70
2018-12-09T17:18:21.287Z,6.70
2018-12-09T17:20:48.562Z,6.70
2018-12-09T17:23:15.887Z,6.60
2018-12-09T17:25:43.058Z,6.70
2018-12-09T17:28:13.901Z,6.70
2018-12-09T17:30:41.084Z,6.70
2018-12-09T17:33:08.296Z,6.70
2018-12-09T17:35:35.493Z,6.70
2018-12-09T17:38:06.189Z,6.80
2018-12-09T17:40:33.379Z,6.80
2018-12-09T17:43:00.598Z,6.90
2018-12-09T17:45:27.821Z,6.90
2018-12-09T17:47:57.190Z,7.00
2018-12-09T17:50:24.385Z,7.00
2018-12-09T17:52:51.671Z,7.00
2018-12-09T17:55:18.976Z,7.00
2018-12-09T17:57:52.465Z,7.00
2018-12-09T18:00:19.657Z,7.00
2018-12-09T18:02:47.026Z,6.90
2018-12-09T18:05:14.200Z,6.90
2018-12-09T18:07:44.612Z,6.90
2018-12-09T18:10:11.828Z,6.80
2018-12-09T18:12:47.983Z,6.80
2018-12-09T18:15:13.183Z,6.80
2018-12-09T18:17:40.592Z,6.70
2018-12-09T18:20:07.804Z,6.70
2018-12-09T18:22:35.189Z,6.70
2018-12-09T18:25:02.656Z,6.70
2018-12-09T18:27:29.830Z,6.70
2018-12-09T18:30:00.573Z,6.70
2018-12-09T18:32:27.794Z,6.70
2018-12-09T18:34:54.962Z,6.70
2018-12-09T18:37:22.147Z,6.80
2018-12-09T18:39:52.610Z,6.80
2018-12-09T18:42:19.844Z,6.80
2018-12-09T18:44:47.106Z,6.80
2018-12-09T18:47:14.352Z,6.70
2018-12-09T18:49:41.619Z,6.80
2018-12-09T18:52:08.854Z,6.80
2018-12-09T18:54:37.187Z,6.80
2018-12-09T18:57:04.484Z,6.80
2018-12-09T18:59:31.719Z,6.80
2018-12-09T19:01:58.911Z,6.80
2018-12-09T19:07:19.314Z,6.80
2018-12-09T19:09:46.620Z,6.80
2018-12-09T19:12:13.856Z,6.80
2018-12-09T19:14:41.098Z,6.80
2018-12-09T19:17:08.371Z,6.80
2018-12-09T19:19:35.768Z,6.80
2018-12-09T19:22:03.137Z,6.80
2018-12-09T19:24:30.367Z,6.80
2018-12-09T19:26:57.636Z,6.70
2018-12-09T19:29:25.863Z,6.70
2018-12-09T19:31:53.190Z,6.60
2018-12-09T19:34:31.456Z,6.50
2018-12-09T19:36:59.095Z,6.40
2018-12-09T19:39:26.430Z,6.30
2018-12-09T19:41:53.752Z,6.30
2018-12-09T19:44:21.029Z,6.20
2018-12-09T19:46:48.343Z,6.20
2018-12-09T19:49:15.704Z,6.10
2018-12-09T19:51:42.993Z,6.10
2018-12-09T19:54:10.331Z,6.00
2018-12-09T19:56:37.616Z,6.00
2018-12-09T19:59:06.922Z,6.00
2018-12-09T20:01:34.173Z,6.00
2018-12-09T20:04:01.411Z,6.00
2018-12-09T20:06:28.729Z,6.00
2018-12-09T20:08:57.990Z,6.00
2018-12-09T20:11:25.217Z,6.00
2018-12-09T20:13:54.495Z,6.00
2018-12-09T20:16:21.657Z,6.10
2018-12-09T20:19:02.793Z,6.10
2018-12-09T20:21:33.855Z,6.10
2018-12-09T20:24:01.184Z,6.00
2018-12-09T20:26:31.754Z,6.00
2018-12-09T20:28:59.011Z,6.00
2018-12-09T20:31:43.000Z,6.00
2018-12-09T20:34:10.453Z,6.00
2018-12-09T20:36:41.521Z,5.90
2018-12-09T20:39:08.696Z,5.90
2018-12-09T20:41:42.319Z,5.90
2018-12-09T20:44:09.593Z,5.90
2018-12-09T20:46:51.084Z,5.80
2018-12-09T20:49:18.295Z,5.90
2018-12-09T20:51:45.563Z,5.80
2018-12-09T20:54:12.803Z,5.80
2018-12-09T20:56:47.388Z,5.80
2018-12-09T20:59:14.587Z,5.80
2018-12-09T21:01:41.825Z,5.80
2018-12-09T21:04:09.056Z,5.70
2018-12-09T21:06:36.391Z,5.80
2018-12-09T21:09:05.050Z,5.80
2018-12-09T21:11:33.393Z,5.80
2018-12-09T21:14:00.830Z,5.90
2018-12-09T21:16:35.019Z,5.90
2018-12-09T21:19:02.218Z,5.90
2018-12-09T21:21:29.440Z,5.90
2018-12-09T21:23:56.689Z,5.90
2018-12-09T21:26:23.889Z,5.90
2018-12-09T21:29:03.758Z,5.90
2018-12-09T21:31:31.115Z,5.90
2018-12-09T21:34:04.151Z,5.90
2018-12-09T21:36:31.372Z,5.90
2018-12-09T21:39:07.164Z,5.80
2018-12-09T21:41:34.381Z,5.80
2018-12-09T21:44:05.560Z,5.80
2018-12-09T21:46:32.829Z,5.80
2018-12-09T21:49:00.147Z,5.80
2018-12-09T21:51:27.333Z,5.70
2018-12-09T21:53:54.698Z,5.70
2018-12-09T21:56:21.889Z,5.60
2018-12-09T21:58:51.318Z,5.60
2018-12-09T22:01:18.486Z,5.60
2018-12-09T22:03:45.710Z,5.50
2018-12-09T22:06:12.891Z,5.50
2018-12-09T22:08:40.109Z,5.50
2018-12-09T22:11:07.296Z,5.40
2018-12-09T22:13:34.528Z,5.40
2018-12-09T22:16:02.068Z,5.40
2018-12-09T22:18:29.335Z,5.40
2018-12-09T22:20:56.529Z,5.40
2018-12-09T22:23:23.694Z,5.30
2018-12-09T22:26:01.342Z,5.30
2018-12-09T22:28:28.632Z,5.30
2018-12-09T22:30:59.641Z,5.30
2018-12-09T22:33:26.850Z,5.30
2018-12-09T22:35:57.851Z,5.30
2018-12-09T22:38:25.035Z,5.20
2018-12-09T22:40:55.574Z,5.20
2018-12-09T22:43:22.796Z,5.20
2018-12-09T22:46:02.376Z,5.20
2018-12-09T22:48:29.560Z,5.20
2018-12-09T22:50:56.919Z,5.10
2018-12-09T22:53:24.176Z,5.20
2018-12-09T22:55:58.264Z,5.10
2018-12-09T22:58:25.428Z,5.10
2018-12-09T23:01:00.534Z,5.10
2018-12-09T23:03:27.712Z,5.10
2018-12-09T23:06:00.003Z,5.10
2018-12-09T23:08:27.193Z,5.10
2018-12-09T23:10:54.437Z,5.20
2018-12-09T23:13:21.651Z,5.10
2018-12-09T23:15:49.859Z,5.10
2018-12-09T23:18:17.082Z,5.20
2018-12-09T23:20:47.977Z,5.20
2018-12-09T23:23:21.270Z,5.20
2018-12-09T23:25:48.467Z,5.20
2018-12-09T23:28:21.450Z,5.20
2018-12-09T23:30:48.616Z,5.10
2018-12-09T23:33:19.478Z,5.20
2018-12-09T23:35:46.673Z,5.20
2018-12-09T23:38:13.868Z,5.10
2018-12-09T23:40:41.059Z,5.10
2018-12-09T23:43:08.331Z,5.10
2018-12-09T23:45:35.539Z,5.10
2018-12-09T23:48:02.778Z,5.00
2018-12-09T23:50:29.964Z,5.00
2018-12-09T23:52:57.219Z,5.00
2018-12-09T23:55:24.431Z,5.00
2018-12-09T23:57:51.703Z,5.00
